Time;durP1;ratioP1;P1;durP2;ratioP2;P2;SDS_P1;SDS_P2;PMS_P1;PMS_P2;Temp;Humidity;BMP_temperature;BMP_pressure;BME280_temperature;BME280_humidity;BME280_pressure;Samples;Min_cycle;Max_cycle;Signal;HPM_P1;HPM_P2
2023/04/26 00:01:07;;;;;;;;;;;5.50;67.40;;;;;;4998102;28;19972;-76
2023/04/26 00:03:32;;;;;;;;;;;5.50;67.40;;;;;;5011149;28;19925;-76
2023/04/26 00:05:58;;;;;;;;;;;5.50;67.40;;;;;;5024756;28;19971;-76
2023/04/26 00:08:24;;;;;;;;;;;5.40;67.40;;;;;;5019826;28;19928;-75
2023/04/26 00:10:49;;;;;;;;;;;5.40;67.40;;;;;;5016518;28;19924;-77
2023/04/26 00:13:15;;;;;;;;;;;5.40;67.40;;;;;;5028388;28;20469;-76
2023/04/26 00:15:40;;;;;;;;;;;5.40;67.50;;;;;;5029296;28;19932;-77
2023/04/26 00:18:06;;;;;;;;;;;5.40;67.50;;;;;;5035891;28;20445;-76
2023/04/26 00:20:31;;;;;;;;;;;5.40;67.50;;;;;;5013851;28;19921;-75
2023/04/26 00:22:57;;;;;;;;;;;5.40;67.50;;;;;;5012400;28;19931;-77
2023/04/26 00:25:22;;;;;;;;;;;5.30;67.40;;;;;;5013067;28;19931;-76
2023/04/26 00:27:48;;;;;;;;;;;5.20;67.40;;;;;;5030162;28;19921;-75
2023/04/26 00:30:14;;;;;;;;;;;5.20;67.40;;;;;;5016661;28;20526;-76
2023/04/26 00:32:39;;;;;;;;;;;5.10;67.50;;;;;;5046786;28;20020;-76
2023/04/26 00:35:05;;;;;;;;;;;5.10;67.50;;;;;;5032390;28;19928;-77
2023/04/26 00:37:30;;;;;;;;;;;5.10;67.60;;;;;;5014325;28;20303;-77
2023/04/26 00:39:56;;;;;;;;;;;5.00;67.60;;;;;;5028657;28;20373;-76
2023/04/26 00:42:21;;;;;;;;;;;5.00;67.60;;;;;;5028994;28;19928;-76
2023/04/26 00:44:49;;;;;;;;;;;5.10;67.70;;;;;;5032742;28;19920;-77
2023/04/26 00:47:14;;;;;;;;;;;5.00;67.70;;;;;;5011678;28;19921;-77
2023/04/26 00:49:40;;;;;;;;;;;5.00;67.70;;;;;;5001968;28;19921;-75
2023/04/26 00:52:05;;;;;;;;;;;5.00;67.70;;;;;;5012568;28;19924;-77
2023/04/26 00:54:30;;;;;;;;;;;5.00;67.80;;;;;;5012401;28;20322;-78
2023/04/26 00:56:56;;;;;;;;;;;5.00;67.80;;;;;;4998474;28;19956;-76
2023/04/26 00:59:21;;;;;;;;;;;4.90;67.70;;;;;;5012468;28;19926;-76
2023/04/26 01:01:48;;;;;;;;;;;4.90;67.80;;;;;;5030304;28;19956;-75
2023/04/26 01:04:13;;;;;;;;;;;4.90;67.80;;;;;;5001877;28;20647;-76
2023/04/26 01:06:40;;;;;;;;;;;4.80;67.70;;;;;;5012327;28;19928;-76
2023/04/26 01:09:07;;;;;;;;;;;4.80;67.80;;;;;;5013939;28;19921;-77
2023/04/26 01:11:33;;;;;;;;;;;4.70;67.80;;;;;;5009517;28;19940;-76
2023/04/26 01:13:59;;;;;;;;;;;4.70;67.90;;;;;;5022239;28;19925;-77
2023/04/26 01:16:24;;;;;;;;;;;4.70;67.90;;;;;;5028634;28;20381;-77
2023/04/26 01:18:51;;;;;;;;;;;4.70;67.90;;;;;;5022180;28;19929;-76
2023/04/26 01:21:22;;;;;;;;;;;4.70;68.00;;;;;;5011377;28;20621;-77
2023/04/26 01:23:48;;;;;;;;;;;4.60;68.00;;;;;;4993534;28;20004;-77
2023/04/26 01:26:14;;;;;;;;;;;4.50;67.90;;;;;;5010126;28;19927;-76
2023/04/26 01:28:40;;;;;;;;;;;4.50;67.90;;;;;;5010806;28;19921;-76
2023/04/26 01:31:05;;;;;;;;;;;4.50;68.00;;;;;;4987025;28;19994;-76
2023/04/26 01:33:31;;;;;;;;;;;4.40;68.00;;;;;;5010339;28;19960;-76
2023/04/26 01:35:56;;;;;;;;;;;4.40;68.10;;;;;;5009804;28;20458;-77
2023/04/26 01:38:22;;;;;;;;;;;4.30;68.10;;;;;;5009377;28;19968;-76
2023/04/26 01:40:47;;;;;;;;;;;4.30;68.20;;;;;;5006158;28;19929;-76
2023/04/26 01:43:14;;;;;;;;;;;4.30;68.20;;;;;;5013947;28;19925;-77
2023/04/26 01:45:40;;;;;;;;;;;4.30;68.20;;;;;;5008221;28;19922;-76
2023/04/26 01:48:05;;;;;;;;;;;4.30;68.20;;;;;;5012863;28;19925;-77
2023/04/26 01:50:31;;;;;;;;;;;4.30;68.20;;;;;;5011993;28;20011;-73
2023/04/26 01:52:57;;;;;;;;;;;4.30;68.30;;;;;;4993087;28;20319;-76
2023/04/26 01:55:22;;;;;;;;;;;4.20;68.30;;;;;;5011765;28;19921;-77
2023/04/26 01:57:48;;;;;;;;;;;4.20;68.30;;;;;;5023776;28;20028;-76
2023/04/26 02:00:13;;;;;;;;;;;4.20;68.30;;;;;;5007767;28;19925;-76
2023/04/26 02:02:39;;;;;;;;;;;4.20;68.40;;;;;;5023699;28;20014;-76
2023/04/26 02:05:05;;;;;;;;;;;4.20;68.30;;;;;;4997709;28;20028;-77
2023/04/26 02:07:30;;;;;;;;;;;4.10;68.30;;;;;;5012441;28;19932;-76
2023/04/26 02:09:56;;;;;;;;;;;4.10;68.30;;;;;;5014587;28;20621;-77
2023/04/26 02:12:21;;;;;;;;;;;4.10;68.40;;;;;;5028058;28;19932;-76
2023/04/26 02:14:46;;;;;;;;;;;4.10;68.30;;;;;;5010184;28;19956;-77
2023/04/26 02:17:13;;;;;;;;;;;4.00;68.40;;;;;;5015731;28;19982;-77
2023/04/26 02:19:39;;;;;;;;;;;4.00;68.40;;;;;;5045146;28;19967;-76
2023/04/26 02:22:05;;;;;;;;;;;4.00;68.40;;;;;;5028445;28;19928;-77
2023/04/26 02:24:30;;;;;;;;;;;4.00;68.40;;;;;;4998363;28;20663;-77
2023/04/26 02:26:59;;;;;;;;;;;4.00;68.50;;;;;;5026905;28;19920;-76
2023/04/26 02:29:24;;;;;;;;;;;3.90;68.40;;;;;;5026997;28;20480;-76
2023/04/26 02:31:50;;;;;;;;;;;3.80;68.40;;;;;;5009006;28;20465;-76
2023/04/26 02:34:16;;;;;;;;;;;3.80;68.40;;;;;;4998534;28;19921;-76
2023/04/26 02:36:41;;;;;;;;;;;3.80;68.50;;;;;;5013456;28;19928;-76
2023/04/26 02:39:07;;;;;;;;;;;3.80;68.50;;;;;;5010351;28;19921;-76
2023/04/26 02:41:33;;;;;;;;;;;3.70;68.50;;;;;;5024888;28;19933;-76
2023/04/26 02:43:58;;;;;;;;;;;3.70;68.60;;;;;;5000466;28;19925;-76
2023/04/26 02:46:24;;;;;;;;;;;3.70;68.70;;;;;;4999948;28;20307;-77
2023/04/26 02:48:49;;;;;;;;;;;3.70;68.70;;;;;;5011716;28;19924;-76
2023/04/26 02:51:15;;;;;;;;;;;3.70;68.70;;;;;;5000968;28;19925;-76
2023/04/26 02:53:40;;;;;;;;;;;3.60;68.80;;;;;;5006968;28;19921;-76
2023/04/26 02:56:06;;;;;;;;;;;3.60;68.70;;;;;;5011613;28;19966;-77
2023/04/26 02:58:31;;;;;;;;;;;3.60;68.80;;;;;;5031468;28;20003;-76
2023/04/26 03:00:57;;;;;;;;;;;3.60;68.80;;;;;;5028928;28;19948;-76
2023/04/26 03:03:23;;;;;;;;;;;3.60;68.80;;;;;;5001583;28;20171;-76
2023/04/26 03:05:48;;;;;;;;;;;3.60;68.80;;;;;;4998819;28;19927;-77
2023/04/26 03:08:14;;;;;;;;;;;3.60;68.80;;;;;;5026110;28;19921;-75
2023/04/26 03:10:39;;;;;;;;;;;3.60;68.80;;;;;;5020970;28;19935;-75
2023/04/26 03:13:05;;;;;;;;;;;3.60;68.80;;;;;;5018597;28;20411;-77
2023/04/26 03:15:30;;;;;;;;;;;3.50;68.80;;;;;;5010222;28;20056;-77
2023/04/26 03:17:56;;;;;;;;;;;3.50;68.80;;;;;;5034974;28;19921;-77
2023/04/26 03:20:22;;;;;;;;;;;3.50;68.80;;;;;;4998565;28;19925;-76
2023/04/26 03:22:48;;;;;;;;;;;3.50;68.80;;;;;;5031560;28;19927;-77
2023/04/26 03:25:15;;;;;;;;;;;3.40;68.80;;;;;;5021794;28;19927;-76
2023/04/26 03:27:40;;;;;;;;;;;3.40;68.80;;;;;;5005820;28;20012;-76
2023/04/26 03:30:06;;;;;;;;;;;3.30;68.80;;;;;;5034069;28;20947;-76
2023/04/26 03:32:31;;;;;;;;;;;3.20;68.80;;;;;;5015598;28;19925;-76
2023/04/26 03:34:57;;;;;;;;;;;3.20;68.90;;;;;;5017545;28;20654;-77
2023/04/26 03:37:22;;;;;;;;;;;3.20;68.90;;;;;;5037103;28;19925;-76
2023/04/26 03:39:49;;;;;;;;;;;3.20;69.00;;;;;;5034896;28;19928;-75
2023/04/26 03:42:15;;;;;;;;;;;3.10;69.10;;;;;;5036473;28;20039;-77
2023/04/26 03:44:40;;;;;;;;;;;3.10;69.00;;;;;;5017159;28;19921;-76
2023/04/26 03:47:06;;;;;;;;;;;3.10;69.10;;;;;;5019231;28;20379;-75
2023/04/26 03:49:31;;;;;;;;;;;3.10;69.90;;;;;;5021503;28;19928;-77
2023/04/26 03:51:57;;;;;;;;;;;3.00;69.00;;;;;;5018323;28;19921;-77
2023/04/26 03:54:22;;;;;;;;;;;3.00;69.20;;;;;;5018708;28;20051;-76
2023/04/26 03:56:48;;;;;;;;;;;3.00;69.10;;;;;;5033129;28;20414;-77
2023/04/26 03:59:13;;;;;;;;;;;3.00;69.10;;;;;;5034801;28;19920;-77
2023/04/26 04:01:39;;;;;;;;;;;3.00;69.10;;;;;;5034335;28;19925;-76
2023/04/26 04:04:04;;;;;;;;;;;3.00;69.20;;;;;;5016670;28;19921;-77
2023/04/26 04:06:30;;;;;;;;;;;3.00;69.20;;;;;;5020866;28;19920;-76
2023/04/26 04:08:55;;;;;;;;;;;2.90;69.20;;;;;;5018105;28;19943;-78
2023/04/26 04:11:20;;;;;;;;;;;2.90;69.20;;;;;;5036922;28;20331;-76
2023/04/26 04:13:46;;;;;;;;;;;2.90;69.20;;;;;;5037832;28;19928;-76
2023/04/26 04:16:11;;;;;;;;;;;2.90;69.20;;;;;;5037888;28;19928;-77
2023/04/26 04:18:37;;;;;;;;;;;2.90;69.20;;;;;;5036131;28;19973;-77
2023/04/26 04:21:02;;;;;;;;;;;2.90;69.30;;;;;;5020003;28;20277;-76
2023/04/26 04:23:28;;;;;;;;;;;2.80;69.30;;;;;;5030788;28;19924;-76
2023/04/26 04:25:53;;;;;;;;;;;2.80;69.30;;;;;;5032157;28;20542;-77
2023/04/26 04:28:19;;;;;;;;;;;2.80;69.30;;;;;;5014497;28;19960;-76
2023/04/26 04:30:45;;;;;;;;;;;2.80;69.30;;;;;;5000032;28;19921;-77
2023/04/26 04:33:11;;;;;;;;;;;2.80;69.40;;;;;;5017563;28;19928;-77
2023/04/26 04:35:37;;;;;;;;;;;2.80;69.30;;;;;;5013329;28;19967;-76
2023/04/26 04:38:03;;;;;;;;;;;2.80;69.30;;;;;;5031541;28;19925;-77
2023/04/26 04:40:28;;;;;;;;;;;2.80;69.40;;;;;;5013099;28;19982;-75
2023/04/26 04:42:54;;;;;;;;;;;2.70;69.40;;;;;;5004398;28;19929;-77
2023/04/26 04:45:20;;;;;;;;;;;2.80;69.40;;;;;;5029481;28;19979;-75
2023/04/26 04:47:46;;;;;;;;;;;2.70;69.40;;;;;;5011536;28;20561;-76
2023/04/26 04:50:11;;;;;;;;;;;2.70;69.40;;;;;;5017033;28;20418;-76
2023/04/26 04:52:37;;;;;;;;;;;2.70;69.40;;;;;;5033739;28;19921;-77
2023/04/26 04:55:03;;;;;;;;;;;2.70;69.50;;;;;;4998736;28;20640;-78
2023/04/26 04:57:29;;;;;;;;;;;2.70;69.40;;;;;;5031703;28;19960;-76
2023/04/26 04:59:54;;;;;;;;;;;2.70;69.40;;;;;;5015644;28;20015;-78
2023/04/26 05:02:20;;;;;;;;;;;2.70;69.40;;;;;;5031672;28;19978;-77
2023/04/26 05:04:45;;;;;;;;;;;2.70;69.50;;;;;;5029287;28;20644;-76
2023/04/26 05:07:14;;;;;;;;;;;2.70;69.50;;;;;;5000885;28;19936;-76
2023/04/26 05:09:40;;;;;;;;;;;2.70;70.30;;;;;;5015222;28;19928;-77
2023/04/26 05:12:06;;;;;;;;;;;2.80;69.60;;;;;;5016260;28;20293;-76
2023/04/26 05:14:31;;;;;;;;;;;2.80;69.60;;;;;;5014179;28;19927;-76
2023/04/26 05:16:57;;;;;;;;;;;2.80;69.60;;;;;;5014311;28;19990;-77
2023/04/26 05:19:22;;;;;;;;;;;2.80;69.60;;;;;;5033749;28;19920;-76
2023/04/26 05:21:48;;;;;;;;;;;2.90;69.60;;;;;;5015731;28;20635;-76
2023/04/26 05:24:13;;;;;;;;;;;2.90;69.60;;;;;;5032652;28;19960;-76
2023/04/26 05:26:39;;;;;;;;;;;2.90;69.50;;;;;;5029387;28;19928;-76
2023/04/26 05:29:05;;;;;;;;;;;2.90;69.50;;;;;;5016126;28;19920;-78
2023/04/26 05:31:30;;;;;;;;;;;3.00;69.50;;;;;;5012059;28;19959;-76
2023/04/26 05:33:56;;;;;;;;;;;3.00;69.50;;;;;;5029878;28;19932;-76
2023/04/26 05:36:22;;;;;;;;;;;3.10;69.50;;;;;;5015308;28;19920;-77
2023/04/26 05:38:47;;;;;;;;;;;3.10;69.40;;;;;;5000159;28;19959;-76
2023/04/26 05:41:12;;;;;;;;;;;3.10;69.40;;;;;;5004430;28;20577;-77
2023/04/26 05:43:39;;;;;;;;;;;3.20;69.40;;;;;;5040753;28;19979;-76
2023/04/26 05:46:04;;;;;;;;;;;3.20;69.40;;;;;;5012978;28;19925;-77
2023/04/26 05:48:30;;;;;;;;;;;3.30;69.40;;;;;;5032813;28;19961;-76
2023/04/26 05:50:55;;;;;;;;;;;3.30;69.30;;;;;;4999686;28;19964;-76
2023/04/26 05:53:21;;;;;;;;;;;3.40;69.40;;;;;;5015589;28;19921;-77
2023/04/26 05:55:46;;;;;;;;;;;3.40;69.30;;;;;;5010921;28;19928;-76
2023/04/26 05:58:11;;;;;;;;;;;3.50;69.30;;;;;;5030394;28;20454;-76
2023/04/26 06:00:37;;;;;;;;;;;3.50;69.30;;;;;;5028412;28;19921;-77
2023/04/26 06:03:03;;;;;;;;;;;3.60;69.30;;;;;;5014659;28;20442;-76
2023/04/26 06:05:29;;;;;;;;;;;3.60;69.20;;;;;;4997109;28;19921;-76
2023/04/26 06:07:55;;;;;;;;;;;3.70;69.20;;;;;;5013148;28;19979;-77
2023/04/26 06:13:37;;;;;;;;;;;3.80;69.20;;;;;;5024402;28;20302;-76
2023/04/26 06:16:02;;;;;;;;;;;3.90;69.10;;;;;;4998666;28;19929;-76
2023/04/26 06:18:28;;;;;;;;;;;4.00;69.10;;;;;;5011073;28;19925;-76
2023/04/26 06:20:53;;;;;;;;;;;4.10;69.10;;;;;;5025610;28;19928;-76
2023/04/26 06:23:19;;;;;;;;;;;4.20;69.10;;;;;;5006150;28;20349;-77
2023/04/26 06:25:44;;;;;;;;;;;4.30;69.10;;;;;;5023436;28;19927;-77
2023/04/26 06:28:10;;;;;;;;;;;4.40;69.00;;;;;;5016118;28;19956;-76
2023/04/26 06:30:36;;;;;;;;;;;4.50;69.00;;;;;;5009976;28;19928;-76
2023/04/26 06:33:01;;;;;;;;;;;4.60;69.00;;;;;;5014333;28;20934;-76
2023/04/26 06:35:27;;;;;;;;;;;4.70;68.90;;;;;;5004866;28;19971;-77
2023/04/26 06:37:52;;;;;;;;;;;4.80;68.90;;;;;;5014343;28;19943;-79
2023/04/26 06:40:18;;;;;;;;;;;4.90;68.80;;;;;;5014747;28;21264;-77
2023/04/26 06:42:44;;;;;;;;;;;5.00;68.70;;;;;;5013685;28;19932;-76
2023/04/26 06:45:10;;;;;;;;;;;5.10;68.70;;;;;;5025878;28;19928;-77
2023/04/26 06:47:35;;;;;;;;;;;5.20;68.70;;;;;;5012586;28;19925;-77
2023/04/26 06:50:02;;;;;;;;;;;5.40;68.60;;;;;;5031300;28;19998;-78
2023/04/26 06:52:28;;;;;;;;;;;5.50;68.60;;;;;;5014434;28;20465;-76
2023/04/26 06:54:54;;;;;;;;;;;5.60;68.40;;;;;;5031144;28;19928;-77
2023/04/26 06:57:19;;;;;;;;;;;5.70;68.40;;;;;;5029868;28;20374;-76
2023/04/26 06:59:45;;;;;;;;;;;5.90;68.40;;;;;;5011819;28;19917;-77
2023/04/26 07:02:10;;;;;;;;;;;6.00;68.30;;;;;;5012147;28;19989;-76
2023/04/26 07:04:36;;;;;;;;;;;6.10;68.20;;;;;;5028672;28;20419;-77
2023/04/26 07:07:01;;;;;;;;;;;6.20;68.10;;;;;;5013986;28;21338;-77
2023/04/26 07:09:27;;;;;;;;;;;6.30;68.10;;;;;;5010773;28;20323;-77
2023/04/26 07:11:52;;;;;;;;;;;6.50;68.10;;;;;;5013673;28;19979;-77
2023/04/26 07:14:18;;;;;;;;;;;6.70;68.00;;;;;;4991357;28;19965;-77
2023/04/26 07:16:43;;;;;;;;;;;6.80;67.80;;;;;;5002726;28;19967;-77
2023/04/26 07:19:09;;;;;;;;;;;6.90;67.80;;;;;;5017658;28;19947;-76
2023/04/26 07:21:35;;;;;;;;;;;7.10;67.70;;;;;;5010582;28;19940;-76
2023/04/26 07:24:00;;;;;;;;;;;7.30;67.60;;;;;;5011402;28;19932;-77
2023/04/26 07:26:26;;;;;;;;;;;7.50;67.50;;;;;;5006420;28;19928;-77
2023/04/26 07:28:51;;;;;;;;;;;7.60;67.40;;;;;;5012688;28;19925;-77
2023/04/26 07:31:17;;;;;;;;;;;7.80;67.30;;;;;;5007507;28;19921;-76
2023/04/26 07:33:43;;;;;;;;;;;7.90;67.20;;;;;;5007388;28;19925;-77
2023/04/26 07:36:08;;;;;;;;;;;8.20;67.10;;;;;;5011069;28;19991;-78
2023/04/26 07:38:34;;;;;;;;;;;8.30;67.00;;;;;;5027463;28;19952;-78
2023/04/26 07:41:03;;;;;;;;;;;8.50;66.80;;;;;;5012738;28;19921;-78
2023/04/26 07:43:29;;;;;;;;;;;8.60;66.70;;;;;;5008626;28;19933;-78
2023/04/26 07:45:54;;;;;;;;;;;8.80;66.60;;;;;;5009297;28;19925;-78
2023/04/26 07:48:20;;;;;;;;;;;8.90;67.20;;;;;;5010776;28;19921;-78
2023/04/26 07:50:45;;;;;;;;;;;9.10;66.40;;;;;;4996637;28;21141;-78
2023/04/26 07:53:11;;;;;;;;;;;9.30;66.30;;;;;;5028817;28;19921;-78
2023/04/26 07:55:36;;;;;;;;;;;9.50;66.20;;;;;;5011151;28;20061;-77
2023/04/26 07:58:02;;;;;;;;;;;9.60;66.00;;;;;;5001784;28;20533;-76
2023/04/26 08:00:28;;;;;;;;;;;9.70;65.90;;;;;;5010393;28;19932;-78
2023/04/26 08:02:53;;;;;;;;;;;9.90;66.60;;;;;;5009830;28;19925;-78
2023/04/26 08:05:19;;;;;;;;;;;10.10;65.70;;;;;;5009508;28;19924;-78
2023/04/26 08:07:44;;;;;;;;;;;10.20;65.50;;;;;;5009641;28;19925;-78
2023/04/26 08:10:10;;;;;;;;;;;10.50;65.50;;;;;;5012260;28;19925;-78
2023/04/26 08:12:36;;;;;;;;;;;10.60;65.30;;;;;;5008281;28;19921;-78
2023/04/26 08:15:03;;;;;;;;;;;10.80;65.10;;;;;;5002452;28;20003;-78
2023/04/26 08:17:28;;;;;;;;;;;11.00;65.00;;;;;;5015903;28;19920;-77
2023/04/26 08:19:54;;;;;;;;;;;11.20;64.80;;;;;;5002419;28;19931;-78
2023/04/26 08:22:19;;;;;;;;;;;11.40;64.70;;;;;;5031766;28;19925;-78
2023/04/26 08:24:49;;;;;;;;;;;11.60;64.50;;;;;;5029188;28;19921;-77
2023/04/26 08:27:14;;;;;;;;;;;11.70;64.30;;;;;;5031233;28;19920;-79
2023/04/26 08:29:40;;;;;;;;;;;11.90;64.20;;;;;;5030164;28;19932;-78
2023/04/26 08:32:06;;;;;;;;;;;12.10;64.10;;;;;;5031602;28;19920;-78
2023/04/26 08:34:31;;;;;;;;;;;12.30;64.00;;;;;;5016760;28;20459;-78
2023/04/26 08:36:57;;;;;;;;;;;12.50;63.80;;;;;;5019048;28;20310;-76
2023/04/26 08:39:23;;;;;;;;;;;12.70;63.60;;;;;;5002290;28;19920;-78
2023/04/26 08:41:49;;;;;;;;;;;12.80;63.40;;;;;;5030335;28;19921;-79
2023/04/26 08:44:14;;;;;;;;;;;13.00;63.40;;;;;;5015162;28;20841;-77
2023/04/26 08:46:43;;;;;;;;;;;13.10;63.10;;;;;;5004832;28;19926;-78
2023/04/26 08:49:29;;;;;;;;;;;13.30;63.00;;;;;;5013715;28;19947;-79
2023/04/26 08:51:54;;;;;;;;;;;13.30;62.80;;;;;;4987761;28;19961;-78
2023/04/26 08:54:20;;;;;;;;;;;13.40;62.80;;;;;;5014274;28;20633;-78
2023/04/26 08:56:46;;;;;;;;;;;13.40;62.60;;;;;;5003611;28;19984;-78
2023/04/26 08:59:11;;;;;;;;;;;13.40;62.60;;;;;;5000119;28;19921;-78
2023/04/26 09:01:40;;;;;;;;;;;13.50;62.70;;;;;;5015966;28;19928;-78
2023/04/26 09:04:06;;;;;;;;;;;13.50;62.70;;;;;;5018828;28;19931;-78
2023/04/26 09:06:31;;;;;;;;;;;13.60;62.70;;;;;;5012594;28;19928;-79
2023/04/26 09:08:57;;;;;;;;;;;13.70;62.60;;;;;;5014307;28;19920;-78
2023/04/26 09:11:22;;;;;;;;;;;13.80;62.60;;;;;;5002227;28;19924;-79
2023/04/26 09:13:48;;;;;;;;;;;13.90;62.50;;;;;;5010514;28;19929;-78
2023/04/26 09:16:14;;;;;;;;;;;13.90;62.40;;;;;;5014341;28;20631;-78
2023/04/26 09:18:49;;;;;;;;;;;13.90;62.30;;;;;;5027202;28;19921;-77
2023/04/26 09:21:17;;;;;;;;;;;13.90;62.30;;;;;;5018027;28;19964;-78
2023/04/26 09:23:58;;;;;;;;;;;13.80;62.30;;;;;;5009107;28;19925;-78
2023/04/26 09:26:24;;;;;;;;;;;13.80;62.40;;;;;;4993084;28;19968;-77
2023/04/26 09:28:49;;;;;;;;;;;13.90;62.40;;;;;;5015504;28;20004;-78
2023/04/26 09:31:21;;;;;;;;;;;13.90;62.40;;;;;;5010551;28;20909;-78
2023/04/26 09:33:56;;;;;;;;;;;14.00;62.30;;;;;;5011853;28;19929;-78
2023/04/26 09:36:22;;;;;;;;;;;14.20;62.20;;;;;;5027662;28;20004;-78
2023/04/26 09:38:47;;;;;;;;;;;14.30;62.10;;;;;;5013929;28;19921;-79
2023/04/26 09:41:13;;;;;;;;;;;14.40;62.00;;;;;;5011692;28;20403;-78
2023/04/26 09:43:38;;;;;;;;;;;14.50;61.80;;;;;;5011235;28;19932;-78
2023/04/26 09:46:04;;;;;;;;;;;14.50;61.70;;;;;;5012673;28;20378;-79
2023/04/26 09:48:31;;;;;;;;;;;14.50;61.70;;;;;;5010388;28;19927;-77
2023/04/26 09:50:57;;;;;;;;;;;14.60;61.60;;;;;;5025996;28;20307;-78
2023/04/26 09:53:30;;;;;;;;;;;14.70;61.60;;;;;;5007885;28;19936;-78
2023/04/26 09:55:56;;;;;;;;;;;14.80;61.50;;;;;;5023384;28;20052;-78
2023/04/26 09:58:22;;;;;;;;;;;14.80;61.30;;;;;;5014190;28;19925;-78
2023/04/26 10:00:50;;;;;;;;;;;14.70;61.30;;;;;;5029368;28;20354;-77
2023/04/26 10:03:16;;;;;;;;;;;14.60;61.30;;;;;;5011323;28;19925;-77
2023/04/26 10:05:42;;;;;;;;;;;14.70;61.40;;;;;;5001183;28;20000;-77
2023/04/26 10:08:08;;;;;;;;;;;14.70;61.40;;;;;;5013431;28;19921;-78
2023/04/26 10:10:33;;;;;;;;;;;14.70;61.40;;;;;;4991294;28;19929;-77
2023/04/26 10:12:59;;;;;;;;;;;14.70;61.30;;;;;;5017509;28;19970;-78
2023/04/26 10:15:24;;;;;;;;;;;14.80;61.30;;;;;;5013954;28;19925;-78
2023/04/26 10:17:50;;;;;;;;;;;15.00;61.30;;;;;;5011037;28;20313;-77
2023/04/26 10:20:15;;;;;;;;;;;15.20;61.00;;;;;;4999830;28;20447;-78
2023/04/26 10:22:44;;;;;;;;;;;15.30;60.80;;;;;;4996367;28;19920;-78
2023/04/26 10:25:10;;;;;;;;;;;15.40;60.60;;;;;;4998407;28;19920;-78
2023/04/26 10:27:41;;;;;;;;;;;15.60;60.50;;;;;;5026995;28;19925;-78
2023/04/26 10:30:08;;;;;;;;;;;15.60;60.30;;;;;;5032976;28;19921;-78
2023/04/26 10:32:53;;;;;;;;;;;15.70;60.40;;;;;;5008216;28;20187;-78
2023/04/26 10:35:19;;;;;;;;;;;15.70;60.30;;;;;;5010994;28;19921;-78
2023/04/26 10:38:02;;;;;;;;;;;15.80;60.20;;;;;;5014331;28;19921;-78
2023/04/26 10:40:38;;;;;;;;;;;15.90;60.10;;;;;;5029617;28;19921;-78
2023/04/26 10:43:09;;;;;;;;;;;15.90;60.00;;;;;;5029835;28;20009;-78
2023/04/26 10:45:35;;;;;;;;;;;16.00;59.90;;;;;;5025518;28;20334;-77
2023/04/26 10:48:19;;;;;;;;;;;16.00;59.70;;;;;;5012225;28;19925;-78
2023/04/26 10:50:58;;;;;;;;;;;16.00;59.70;;;;;;5012796;28;20006;-78
2023/04/26 10:53:23;;;;;;;;;;;16.10;59.70;;;;;;5026954;28;19921;-78
2023/04/26 10:55:49;;;;;;;;;;;16.10;59.80;;;;;;5014539;28;19927;-78
2023/04/26 10:58:29;;;;;;;;;;;16.20;59.80;;;;;;5032589;28;20001;-77
2023/04/26 11:01:10;;;;;;;;;;;16.30;59.70;;;;;;5032202;28;19928;-78
2023/04/26 11:03:36;;;;;;;;;;;16.40;59.60;;;;;;5026201;28;19996;-77
2023/04/26 11:06:08;;;;;;;;;;;16.50;59.50;;;;;;5012168;28;19929;-79
2023/04/26 11:08:35;;;;;;;;;;;16.60;59.40;;;;;;5012262;28;19921;-77
2023/04/26 11:11:01;;;;;;;;;;;16.80;59.40;;;;;;5011809;28;19929;-77
2023/04/26 11:13:26;;;;;;;;;;;16.90;59.20;;;;;;5012204;28;19930;-78
2023/04/26 11:15:52;;;;;;;;;;;17.00;59.00;;;;;;4996529;28;19928;-78
2023/04/26 11:18:18;;;;;;;;;;;17.10;58.90;;;;;;5000525;28;19921;-77
2023/04/26 11:20:45;;;;;;;;;;;17.10;58.90;;;;;;5016167;28;20324;-78
2023/04/26 11:23:10;;;;;;;;;;;17.20;58.80;;;;;;5015879;28;19925;-78
2023/04/26 11:25:37;;;;;;;;;;;17.30;58.80;;;;;;4997259;28;19924;-78
2023/04/26 11:28:03;;;;;;;;;;;17.20;58.70;;;;;;5006050;28;19925;-76
2023/04/26 11:30:29;;;;;;;;;;;17.20;58.70;;;;;;5001721;28;19929;-78
2023/04/26 11:32:54;;;;;;;;;;;17.20;58.80;;;;;;5006018;28;19953;-78
2023/04/26 11:35:21;;;;;;;;;;;17.30;58.80;;;;;;5020513;28;19972;-78
2023/04/26 11:37:48;;;;;;;;;;;17.20;58.60;;;;;;5020233;28;19975;-77
2023/04/26 11:40:14;;;;;;;;;;;17.30;58.60;;;;;;5007638;28;19920;-78
2023/04/26 11:42:41;;;;;;;;;;;17.30;58.70;;;;;;5022205;28;19921;-77
2023/04/26 11:45:07;;;;;;;;;;;17.40;58.60;;;;;;5019068;28;19925;-78
2023/04/26 11:47:33;;;;;;;;;;;17.40;58.50;;;;;;4991567;28;19932;-79
2023/04/26 11:49:58;;;;;;;;;;;17.50;58.40;;;;;;5004467;28;19929;-78
2023/04/26 11:52:24;;;;;;;;;;;17.60;58.40;;;;;;5002888;28;20008;-78
2023/04/26 11:54:49;;;;;;;;;;;17.60;58.30;;;;;;5008891;28;20342;-78
2023/04/26 11:57:16;;;;;;;;;;;17.60;58.20;;;;;;5003736;28;19933;-78
2023/04/26 11:59:42;;;;;;;;;;;17.70;58.30;;;;;;5018953;28;19979;-78
2023/04/26 12:02:07;;;;;;;;;;;17.80;58.20;;;;;;5018108;28;19921;-78
2023/04/26 12:04:33;;;;;;;;;;;17.90;58.00;;;;;;5019281;28;19921;-78
2023/04/26 12:06:58;;;;;;;;;;;18.00;57.80;;;;;;5001029;28;19961;-77
2023/04/26 12:09:27;;;;;;;;;;;18.00;57.80;;;;;;5005425;28;19921;-78
2023/04/26 12:11:57;;;;;;;;;;;18.10;57.90;;;;;;5014066;28;19925;-78
2023/04/26 12:14:24;;;;;;;;;;;18.20;57.90;;;;;;5008986;28;19956;-77
2023/04/26 12:16:50;;;;;;;;;;;18.30;57.70;;;;;;4994342;28;20146;-77
2023/04/26 12:19:16;;;;;;;;;;;18.30;57.60;;;;;;5009661;28;20845;-77
2023/04/26 12:21:44;;;;;;;;;;;18.40;57.60;;;;;;4990986;28;19921;-78
2023/04/26 12:24:22;;;;;;;;;;;18.40;57.50;;;;;;5011038;28;20028;-78
2023/04/26 12:26:48;;;;;;;;;;;18.40;57.50;;;;;;5013137;28;19991;-78
2023/04/26 12:29:13;;;;;;;;;;;18.50;57.50;;;;;;5029255;28;20735;-78
2023/04/26 12:31:39;;;;;;;;;;;18.50;57.50;;;;;;5011350;28;20388;-78
2023/04/26 12:34:04;;;;;;;;;;;18.50;57.40;;;;;;5014562;28;20027;-78
2023/04/26 12:36:30;;;;;;;;;;;18.40;57.40;;;;;;5017906;28;19921;-78
2023/04/26 12:38:56;;;;;;;;;;;18.50;57.50;;;;;;4995369;28;19925;-78
2023/04/26 12:41:22;;;;;;;;;;;18.50;57.50;;;;;;5010649;28;19979;-78
2023/04/26 12:43:47;;;;;;;;;;;18.70;57.50;;;;;;5027371;28;19929;-78
2023/04/26 12:46:13;;;;;;;;;;;18.80;57.40;;;;;;4996779;28;19917;-78
2023/04/26 12:48:38;;;;;;;;;;;19.00;57.10;;;;;;5005729;28;19921;-78
2023/04/26 12:51:04;;;;;;;;;;;19.20;56.90;;;;;;5009247;28;19917;-78
2023/04/26 12:53:29;;;;;;;;;;;19.20;56.80;;;;;;5009431;28;20426;-77
2023/04/26 12:55:55;;;;;;;;;;;19.30;56.80;;;;;;5010505;28;19923;-78
2023/04/26 12:58:21;;;;;;;;;;;19.50;56.70;;;;;;5012759;28;19921;-78
2023/04/26 13:00:47;;;;;;;;;;;19.70;56.70;;;;;;5028641;28;19959;-78
2023/04/26 13:03:13;;;;;;;;;;;19.80;56.60;;;;;;5015458;28;20315;-78
2023/04/26 13:05:39;;;;;;;;;;;19.90;56.40;;;;;;5012799;28;19925;-78
2023/04/26 13:08:04;;;;;;;;;;;20.00;56.40;;;;;;5013007;28;20386;-78
2023/04/26 13:10:31;;;;;;;;;;;20.10;56.30;;;;;;5011394;28;19921;-78
2023/04/26 13:12:57;;;;;;;;;;;20.20;56.20;;;;;;5006946;28;19936;-78
2023/04/26 13:15:23;;;;;;;;;;;20.30;56.00;;;;;;5027236;28;19925;-79
2023/04/26 13:17:49;;;;;;;;;;;20.20;56.00;;;;;;5017358;28;20399;-77
2023/04/26 13:20:16;;;;;;;;;;;20.20;56.10;;;;;;5033226;28;20327;-78
2023/04/26 13:22:42;;;;;;;;;;;20.30;56.20;;;;;;5027889;28;19943;-79
2023/04/26 13:25:08;;;;;;;;;;;20.50;56.10;;;;;;5019815;28;19965;-78
2023/04/26 13:27:33;;;;;;;;;;;20.60;56.00;;;;;;4999675;28;20152;-78
2023/04/26 13:29:59;;;;;;;;;;;20.80;55.80;;;;;;5032080;28;19931;-77
2023/04/26 13:32:25;;;;;;;;;;;20.90;55.70;;;;;;5017033;28;19920;-78
2023/04/26 13:34:50;;;;;;;;;;;21.00;55.40;;;;;;5009694;28;20386;-77
2023/04/26 13:37:17;;;;;;;;;;;21.20;55.40;;;;;;5031710;28;19977;-79
2023/04/26 13:39:43;;;;;;;;;;;21.20;55.10;;;;;;5029830;28;19924;-79
2023/04/26 13:42:08;;;;;;;;;;;21.20;54.90;;;;;;5018969;28;20430;-79
2023/04/26 13:44:34;;;;;;;;;;;21.20;55.20;;;;;;5032356;28;19932;-77
2023/04/26 13:46:59;;;;;;;;;;;21.30;55.10;;;;;;5001411;28;20303;-79
2023/04/26 13:49:25;;;;;;;;;;;21.40;55.20;;;;;;5029232;28;19925;-80
2023/04/26 13:51:51;;;;;;;;;;;21.50;55.10;;;;;;5018389;28;19967;-80
2023/04/26 13:54:17;;;;;;;;;;;21.60;55.00;;;;;;5002444;28;20558;-81
2023/04/26 13:56:42;;;;;;;;;;;21.70;55.00;;;;;;5031473;28;19925;-79
2023/04/26 13:59:08;;;;;;;;;;;21.80;54.90;;;;;;5032579;28;19925;-79
2023/04/26 14:01:34;;;;;;;;;;;21.90;54.70;;;;;;5018606;28;19921;-79
2023/04/26 14:04:00;;;;;;;;;;;22.20;54.70;;;;;;5012409;28;19925;-77
2023/04/26 14:06:25;;;;;;;;;;;22.40;54.50;;;;;;5036112;28;19947;-79
2023/04/26 14:08:51;;;;;;;;;;;22.40;54.30;;;;;;5008002;28;19924;-79
2023/04/26 14:11:16;;;;;;;;;;;22.40;54.20;;;;;;5003566;28;19923;-79
2023/04/26 14:13:42;;;;;;;;;;;22.30;54.30;;;;;;5011666;28;20446;-80
2023/04/26 14:16:07;;;;;;;;;;;22.40;54.50;;;;;;4993945;28;20299;-80
2023/04/26 14:18:33;;;;;;;;;;;22.30;54.40;;;;;;5010016;28;20581;-81
2023/04/26 14:20:58;;;;;;;;;;;22.40;54.40;;;;;;5012998;28;19918;-80